createdAt,value
2024-02-19T00:00:59.377Z,8.00
2024-02-19T00:06:04.800Z,12.40
2024-02-19T00:11:08.735Z,14.20
2024-02-19T00:16:10.357Z,10.60
2024-02-19T00:21:12.118Z,10.40
2024-02-19T00:26:14.960Z,11.10
2024-02-19T00:31:17.467Z,7.80
2024-02-19T00:36:21.186Z,9.40
2024-02-19T00:41:23.360Z,12.90
2024-02-19T00:46:25.235Z,9.90
2024-02-19T00:51:26.875Z,11.20
2024-02-19T00:56:28.834Z,10.00
2024-02-19T01:01:31.953Z,10.50
2024-02-19T01:06:33.648Z,8.60
2024-02-19T01:11:36.056Z,9.90
2024-02-19T01:16:37.916Z,9.60
2024-02-19T01:21:39.818Z,9.80
2024-02-19T01:26:41.360Z,9.40
2024-02-19T01:31:42.898Z,10.10
2024-02-19T01:36:45.402Z,11.80
2024-02-19T01:41:46.999Z,8.40
2024-02-19T01:46:50.250Z,8.60
2024-02-19T01:51:53.030Z,10.10
2024-02-19T01:56:55.136Z,9.00
2024-02-19T02:01:57.080Z,8.00
2024-02-19T02:06:58.988Z,8.90
2024-02-19T02:12:00.667Z,8.20
2024-02-19T02:17:02.310Z,8.50
2024-02-19T02:22:03.999Z,8.00
2024-02-19T02:27:05.885Z,7.20
2024-02-19T02:32:07.791Z,8.00
2024-02-19T02:37:09.418Z,6.20
2024-02-19T02:42:11.109Z,6.40
2024-02-19T02:47:12.661Z,9.00
2024-02-19T02:52:14.314Z,7.60
2024-02-19T02:57:15.892Z,8.10
2024-02-19T03:02:17.421Z,7.00
2024-02-19T03:07:19.116Z,6.10
2024-02-19T03:12:20.772Z,6.60
2024-02-19T03:17:24.112Z,6.60
2024-02-19T03:22:27.129Z,6.00
2024-02-19T03:27:28.748Z,4.80
2024-02-19T03:32:30.312Z,7.10
2024-02-19T03:37:32.204Z,6.70
2024-02-19T03:42:34.589Z,6.60
2024-02-19T03:47:36.313Z,5.90
2024-02-19T03:52:39.058Z,4.30
2024-02-19T03:57:40.693Z,7.30
2024-02-19T04:02:42.462Z,5.80
2024-02-19T04:07:44.076Z,6.70
2024-02-19T04:12:45.721Z,5.10
2024-02-19T04:17:49.040Z,5.80
2024-02-19T04:22:50.835Z,6.40
2024-02-19T04:27:53.448Z,5.30
2024-02-19T04:32:55.169Z,5.90
2024-02-19T04:37:56.965Z,4.80
2024-02-19T04:42:58.652Z,7.20
2024-02-19T04:48:00.381Z,5.90
2024-02-19T04:53:02.050Z,6.80
2024-02-19T04:58:03.762Z,6.30
2024-02-19T05:03:05.653Z,6.50
2024-02-19T05:08:07.727Z,8.30
2024-02-19T05:13:09.343Z,7.30
2024-02-19T05:18:11.121Z,6.30
2024-02-19T05:23:12.728Z,5.50
2024-02-19T05:28:14.399Z,5.20
2024-02-19T05:33:19.729Z,7.60
2024-02-19T05:38:22.058Z,5.40
2024-02-19T05:43:23.709Z,6.20
2024-02-19T05:48:25.847Z,6.20
2024-02-19T05:53:27.691Z,6.70
2024-02-19T05:58:29.393Z,6.60
2024-02-19T06:03:33.429Z,5.70
2024-02-19T06:08:35.036Z,7.50
2024-02-19T06:13:36.659Z,5.30
2024-02-19T06:18:38.537Z,8.30
2024-02-19T06:23:40.761Z,7.20
2024-02-19T06:28:42.418Z,7.20
2024-02-19T06:33:44.693Z,7.50
2024-02-19T06:38:46.512Z,7.30
2024-02-19T06:43:48.066Z,6.30
2024-02-19T06:48:52.262Z,4.90
2024-02-19T06:58:55.879Z,5.30
2024-02-19T07:03:57.781Z,5.10
2024-02-19T07:08:59.476Z,5.80
2024-02-19T07:14:01.026Z,6.30
2024-02-19T07:19:02.865Z,8.20
2024-02-19T07:24:04.891Z,5.50
2024-02-19T07:29:06.608Z,7.80
2024-02-19T07:34:09.179Z,6.20
2024-02-19T07:39:12.006Z,6.60
2024-02-19T07:44:14.025Z,7.00
2024-02-19T07:49:15.850Z,7.70
2024-02-19T07:54:17.668Z,6.50
2024-02-19T07:59:21.037Z,7.20
2024-02-19T08:04:28.294Z,8.00
2024-02-19T08:09:30.060Z,8.40
2024-02-19T08:14:31.724Z,9.10
2024-02-19T08:19:34.635Z,7.00
2024-02-19T08:24:39.206Z,8.40
2024-02-19T08:29:40.797Z,7.90
2024-02-19T08:34:42.983Z,8.40
2024-02-19T08:39:45.769Z,7.90
2024-02-19T08:44:47.459Z,8.70
2024-02-19T08:49:49.310Z,7.10
2024-02-19T08:54:51.199Z,8.30
2024-02-19T08:59:53.459Z,11.50
2024-02-19T09:04:55.381Z,6.90
2024-02-19T09:09:57.162Z,8.10
2024-02-19T09:14:59.702Z,9.70
2024-02-19T09:20:02.100Z,8.70
2024-02-19T09:25:05.172Z,9.40
2024-02-19T09:30:09.134Z,8.30
2024-02-19T09:35:11.026Z,8.20
2024-02-19T09:40:14.020Z,7.60
2024-02-19T09:45:20.686Z,10.00
2024-02-19T09:50:24.287Z,10.60
2024-02-19T09:55:26.551Z,9.10
2024-02-19T10:00:31.012Z,10.40
2024-02-19T10:05:35.408Z,9.90
2024-02-19T10:10:39.504Z,10.60
2024-02-19T10:15:41.128Z,11.40
2024-02-19T10:20:52.298Z,9.70
2024-02-19T10:25:55.515Z,10.90
2024-02-19T10:30:59.796Z,11.40
2024-02-19T10:36:03.974Z,11.70
2024-02-19T10:51:09.333Z,13.90
2024-02-19T10:56:19.034Z,12.40
2024-02-19T11:01:23.544Z,14.70
2024-02-19T11:06:25.363Z,12.80
2024-02-19T11:11:27.239Z,14.20
2024-02-19T11:16:29.729Z,12.10
2024-02-19T11:21:31.623Z,11.50
2024-02-19T11:26:33.260Z,15.20
2024-02-19T11:31:35.074Z,10.40
2024-02-19T11:36:36.646Z,10.30
2024-02-19T11:41:38.908Z,9.90
2024-02-19T11:46:44.933Z,14.20
2024-02-19T11:51:54.435Z,11.00
2024-02-19T11:57:04.837Z,11.20
2024-02-19T12:02:07.802Z,11.80
2024-02-19T12:12:27.933Z,13.70
2024-02-19T12:17:31.896Z,10.00
2024-02-19T12:22:35.452Z,12.40
2024-02-19T12:27:37.411Z,14.80
2024-02-19T12:32:40.398Z,12.60
2024-02-19T12:37:42.199Z,11.60
2024-02-19T12:42:43.905Z,13.50
2024-02-19T12:47:45.741Z,17.00
2024-02-19T12:52:47.962Z,14.80
2024-02-19T12:57:49.742Z,16.10
2024-02-19T13:02:51.551Z,12.10
2024-02-19T13:07:53.337Z,17.00
2024-02-19T13:12:55.952Z,15.30
2024-02-19T13:17:58.096Z,12.60
2024-02-19T13:22:59.677Z,15.90
2024-02-19T13:28:01.234Z,22.90
2024-02-19T13:33:07.679Z,24.90
2024-02-19T13:38:46.162Z,19.30
2024-02-19T13:43:47.883Z,15.30
2024-02-19T13:49:00.045Z,19.60
2024-02-19T13:54:01.755Z,13.70
2024-02-19T13:59:06.882Z,18.70
2024-02-19T14:04:08.780Z,18.30
2024-02-19T14:09:12.748Z,15.10
2024-02-19T14:14:14.436Z,20.20
2024-02-19T14:19:16.219Z,13.90
2024-02-19T14:24:19.316Z,18.60
2024-02-19T14:29:21.066Z,16.30
2024-02-19T14:34:24.645Z,18.40
2024-02-19T14:39:28.317Z,20.40
2024-02-19T14:44:29.985Z,19.90
2024-02-19T14:49:32.145Z,21.10
2024-02-19T14:54:34.668Z,17.60
2024-02-19T14:59:41.300Z,24.50
2024-02-19T15:04:43.048Z,21.70
2024-02-19T15:09:44.675Z,15.70
2024-02-19T15:14:47.396Z,18.70
2024-02-19T15:19:49.147Z,20.90
2024-02-19T15:24:51.276Z,18.30
2024-02-19T15:29:54.813Z,18.70
2024-02-19T15:34:56.436Z,20.00
2024-02-19T15:39:58.197Z,22.50
2024-02-19T15:44:59.883Z,22.00
2024-02-19T15:50:01.796Z,26.90
2024-02-19T15:55:07.097Z,21.70
2024-02-19T16:00:16.809Z,25.50
2024-02-19T16:05:18.725Z,29.40
2024-02-19T16:10:21.632Z,29.60
2024-02-19T16:15:23.465Z,18.20
2024-02-19T16:20:25.042Z,28.40
2024-02-19T16:25:27.687Z,18.00
2024-02-19T16:30:34.973Z,26.90
2024-02-19T16:35:39.526Z,29.10
2024-02-19T16:40:41.307Z,24.60
2024-02-19T16:45:43.915Z,23.40
2024-02-19T16:50:45.558Z,25.10
2024-02-19T16:55:48.705Z,30.30
2024-02-19T17:00:55.169Z,21.10
2024-02-19T17:05:57.386Z,23.90
2024-02-19T17:10:59.331Z,34.40
2024-02-19T17:16:02.022Z,27.90
2024-02-19T17:21:05.127Z,24.70
2024-02-19T17:26:08.057Z,20.30
2024-02-19T17:31:10.029Z,22.00
2024-02-19T17:36:11.771Z,40.50
2024-02-19T17:41:13.409Z,31.20
2024-02-19T17:46:18.944Z,29.80
2024-02-19T17:51:22.336Z,21.30
2024-02-19T17:56:26.976Z,21.60
2024-02-19T18:01:28.592Z,21.30
2024-02-19T18:06:31.532Z,15.60
2024-02-19T18:11:35.189Z,16.20
2024-02-19T18:16:40.006Z,14.90
2024-02-19T18:21:47.801Z,11.30
2024-02-19T18:26:50.021Z,10.10
2024-02-19T18:31:56.683Z,8.10
2024-02-19T18:37:00.344Z,7.20
2024-02-19T18:42:04.093Z,8.50
2024-02-19T18:47:06.548Z,7.50
2024-02-19T18:52:08.600Z,8.80
2024-02-19T18:57:10.345Z,9.40
2024-02-19T19:02:12.247Z,9.90
2024-02-19T19:07:18.515Z,9.40
2024-02-19T19:12:21.851Z,9.20
2024-02-19T19:17:24.267Z,8.50
2024-02-19T19:22:25.978Z,7.00
2024-02-19T19:27:29.253Z,7.60
2024-02-19T19:32:33.500Z,5.10
2024-02-19T19:37:35.235Z,5.20
2024-02-19T19:42:37.257Z,7.00
2024-02-19T19:47:39.168Z,4.40
2024-02-19T19:52:41.347Z,5.00
2024-02-19T19:57:50.489Z,4.40
2024-02-19T20:02:52.214Z,3.50
2024-02-19T20:07:53.859Z,4.60
2024-02-19T20:12:55.552Z,3.50
2024-02-19T20:17:57.343Z,2.70
2024-02-19T20:22:59.789Z,2.40
2024-02-19T20:28:02.308Z,3.70
2024-02-19T20:33:04.649Z,3.30
2024-02-19T20:38:06.399Z,2.80
2024-02-19T20:43:08.226Z,3.10
2024-02-19T20:48:09.971Z,3.80
2024-02-19T20:53:14.698Z,3.70
2024-02-19T20:58:17.588Z,2.90
2024-02-19T21:03:22.531Z,3.70
2024-02-19T21:08:26.224Z,3.50
2024-02-19T21:13:27.884Z,5.70
2024-02-19T21:18:34.706Z,3.00
2024-02-19T21:23:45.964Z,3.30
2024-02-19T21:28:47.500Z,3.90
2024-02-19T21:33:49.222Z,4.60
2024-02-19T21:38:51.351Z,5.10
2024-02-19T21:43:52.962Z,2.80
2024-02-19T21:48:56.400Z,4.30
2024-02-19T21:53:58.181Z,4.30
2024-02-19T21:58:59.791Z,3.60
2024-02-19T22:04:02.448Z,4.20
2024-02-19T22:09:04.299Z,4.20
2024-02-19T22:14:06.140Z,4.30
2024-02-19T22:19:07.784Z,4.60
2024-02-19T22:24:09.683Z,3.90
2024-02-19T22:29:11.291Z,4.30
2024-02-19T22:34:12.998Z,5.70
2024-02-19T22:39:15.665Z,4.60
2024-02-19T22:44:17.382Z,6.10
2024-02-19T22:49:19.076Z,5.50
2024-02-19T22:54:20.786Z,5.30
2024-02-19T22:59:24.025Z,5.50
2024-02-19T23:04:25.672Z,4.90
2024-02-19T23:09:27.241Z,4.90
2024-02-19T23:14:28.809Z,6.70
2024-02-19T23:19:30.675Z,5.10
2024-02-19T23:24:32.366Z,5.00
2024-02-19T23:29:34.660Z,5.30
2024-02-19T23:34:36.629Z,6.00
2024-02-19T23:39:39.784Z,5.50
2024-02-19T23:44:42.642Z,4.00
2024-02-19T23:49:44.384Z,4.50
2024-02-19T23:54:46.005Z,4.00
2024-02-19T23:59:47.530Z,5.40
